CEFAS Endeavour — VQHF3 — position and weather

sailwx.info

Track history (hours):
 
Tides and Currents Weather Stations Pressure Air Temp Water Temp Dewpoint Dewpoint Depression Visibility Wind Speed Wind Dir Waves Ship Positions

Oceanographic research ship CEFAS Endeavour (UK)

Detailed information on ship capabilities available from University of Delaware's Ocean Information Center.

Last reported at 2016-Dec-08 11:33 UTC. Time now 2016-Dec-10 01:18 UTC.
Position N 52°16' E 001°45'.

Length 74 m; draft 8.5 m.

Type: Cargo ship. MMSI: 235005270.

Date/timePositionNaut miles runAvg speedWind from/ knotsBaromVisibWave heightAir tempDewpointWater temp
2016-Dec-08 11:33N 52°16' E 001°45'1110.7
2016-Dec-08 10:33N 52°09' E 001°59'1110.8
2016-Dec-08 09:33N 51°60' E 002°07'2 2.4
2016-Dec-08 08:33N 51°57' E 002°07'2 1.6
2016-Dec-08 07:33N 51°58' E 002°05'1 0.5
2016-Dec-08 06:33N 51°59' E 002°05'1 1.1
2016-Dec-08 05:33N 51°58' E 002°07'3 2.7
2016-Dec-08 04:33N 51°60' E 002°11'4 3.8
2016-Dec-08 03:33N 52°03' E 002°11'5 4.7
2016-Dec-08 02:26N 52°09' E 002°11'43 3.0
2016-Dec-07 12:23N 52°51' E 002°15'3 0.9
2016-Dec-07 08:25N 52°49' E 002°19'8 9.4
2016-Dec-07 07:33N 52°51' E 002°32'8 0.4
2016-Dec-06 13:14N 52°49' E 002°19'18 3.7
2016-Dec-06 08:28N 52°33' E 002°28'2 2.3
2016-Dec-06 07:26N 52°30' E 002°28'7 0.3
2016-Dec-05 09:33N 52°37' E 002°31'1 0.2
2016-Dec-05 06:33N 52°37' E 002°31'2 2.2
2016-Dec-05 05:29N 52°38' E 002°27'6 6.0
2016-Dec-05 04:24N 52°35' E 002°17'5 6.1
2016-Dec-05 03:33N 52°33' E 002°10'6 5.8
2016-Dec-05 02:29N 52°30' E 002°01'  
2016-Dec-01 08:14N 52°28' E 001°45'  
Track history (hours):
 
Tides and Currents Weather Stations Pressure Air Temp Water Temp Dewpoint Dewpoint Depression Visibility Wind Speed Wind Dir Waves Ship Positions

Oceanographic research ship CEFAS Endeavour (UK)

Detailed information on ship capabilities available from University of Delaware's Ocean Information Center.

Last reported at 2016-Dec-08 11:33 UTC. Time now 2016-Dec-10 01:18 UTC.
Position N 52°16' E 001°45'.

Length 74 m; draft 8.5 m.

Type: Cargo ship. MMSI: 235005270.

Date/timePositionNaut miles runAvg speedWind from/ knotsBaromVisibWave heightAir tempDewpointWater temp
2016-Dec-08 11:33N 52°16' E 001°45'1110.7
2016-Dec-08 10:33N 52°09' E 001°59'1110.8
2016-Dec-08 09:33N 51°60' E 002°07'2 2.4
2016-Dec-08 08:33N 51°57' E 002°07'2 1.6
2016-Dec-08 07:33N 51°58' E 002°05'1 0.5
2016-Dec-08 06:33N 51°59' E 002°05'1 1.1
2016-Dec-08 05:33N 51°58' E 002°07'3 2.7
2016-Dec-08 04:33N 51°60' E 002°11'4 3.8
2016-Dec-08 03:33N 52°03' E 002°11'5 4.7
2016-Dec-08 02:26N 52°09' E 002°11'43 3.0
2016-Dec-07 12:23N 52°51' E 002°15'3 0.9
2016-Dec-07 08:25N 52°49' E 002°19'8 9.4
2016-Dec-07 07:33N 52°51' E 002°32'8 0.4
2016-Dec-06 13:14N 52°49' E 002°19'18 3.7
2016-Dec-06 08:28N 52°33' E 002°28'2 2.3
2016-Dec-06 07:26N 52°30' E 002°28'7 0.3
2016-Dec-05 09:33N 52°37' E 002°31'1 0.2
2016-Dec-05 06:33N 52°37' E 002°31'2 2.2
2016-Dec-05 05:29N 52°38' E 002°27'6 6.0
2016-Dec-05 04:24N 52°35' E 002°17'5 6.1
2016-Dec-05 03:33N 52°33' E 002°10'6 5.8
2016-Dec-05 02:29N 52°30' E 002°01'  
2016-Dec-01 08:14N 52°28' E 001°45'  

Dump ship's entire track history